createdAt,value
2019-03-26T00:00:23.447Z,1028.36
2019-03-26T00:01:23.396Z,1028.35
2019-03-26T00:02:23.403Z,1028.35
2019-03-26T00:03:23.688Z,1028.39
2019-03-26T00:04:23.655Z,1028.37
2019-03-26T00:05:23.474Z,1028.35
2019-03-26T00:06:23.392Z,1028.39
2019-03-26T00:07:23.398Z,1028.37
2019-03-26T00:08:23.412Z,1028.39
2019-03-26T00:09:24.293Z,1028.39
2019-03-26T00:10:23.393Z,1028.37
2019-03-26T00:11:23.373Z,1028.37
2019-03-26T00:12:23.381Z,1028.39
2019-03-26T00:13:23.367Z,1028.42
2019-03-26T00:14:23.400Z,1028.41
2019-03-26T00:15:24.248Z,1028.41
2019-03-26T00:16:23.372Z,1028.46
2019-03-26T00:17:23.341Z,1028.46
2019-03-26T00:18:23.379Z,1028.42
2019-03-26T00:19:23.346Z,1028.44
2019-03-26T00:20:23.573Z,1028.43
2019-03-26T00:21:23.359Z,1028.42
2019-03-26T00:22:23.398Z,1028.4
2019-03-26T00:23:23.351Z,1028.38
2019-03-26T00:24:23.401Z,1028.39
2019-03-26T00:25:23.387Z,1028.35
2019-03-26T00:26:23.362Z,1028.3
2019-03-26T00:27:23.361Z,1028.32
2019-03-26T00:28:23.378Z,1028.31
2019-03-26T00:29:23.334Z,1028.32
2019-03-26T00:30:26.024Z,1028.26
2019-03-26T00:31:23.396Z,1028.27
2019-03-26T00:32:23.901Z,1028.29
2019-03-26T00:33:36.851Z,1028.25
2019-03-26T00:34:23.373Z,1028.29
2019-03-26T00:35:23.554Z,1028.29
2019-03-26T00:36:23.366Z,1028.35
2019-03-26T00:37:23.369Z,1028.34
2019-03-26T00:38:23.326Z,1028.31
2019-03-26T00:39:23.370Z,1028.32
2019-03-26T00:40:23.328Z,1028.33
2019-03-26T00:41:23.313Z,1028.31
2019-03-26T00:42:23.324Z,1028.32
2019-03-26T00:43:23.307Z,1028.33
2019-03-26T00:44:23.365Z,1028.35
2019-03-26T00:45:23.339Z,1028.36
2019-03-26T00:46:23.359Z,1028.38
2019-03-26T00:47:23.532Z,1028.4
2019-03-26T00:48:23.311Z,1028.43
2019-03-26T00:49:23.398Z,1028.46
2019-03-26T00:50:24.212Z,1028.48
2019-03-26T00:51:23.318Z,1028.45
2019-03-26T00:52:23.322Z,1028.45
2019-03-26T00:53:23.464Z,1028.44
2019-03-26T00:54:23.335Z,1028.43
2019-03-26T00:55:23.541Z,1028.43
2019-03-26T00:56:23.288Z,1028.4
2019-03-26T00:57:23.339Z,1028.41
2019-03-26T00:58:23.319Z,1028.41
2019-03-26T00:59:23.331Z,1028.42
2019-03-26T01:00:23.398Z,1028.44
2019-03-26T01:01:23.901Z,1028.45
2019-03-26T01:02:23.328Z,1028.42
2019-03-26T01:03:23.330Z,1028.47
2019-03-26T01:04:33.434Z,1028.51
2019-03-26T01:05:23.381Z,1028.51
2019-03-26T01:06:23.313Z,1028.51
2019-03-26T01:07:23.310Z,1028.58
2019-03-26T01:08:23.300Z,1028.58
2019-03-26T01:09:23.454Z,1028.56
2019-03-26T01:10:23.818Z,1028.6
2019-03-26T01:11:23.290Z,1028.63
2019-03-26T01:12:23.345Z,1028.67
2019-03-26T01:13:23.280Z,1028.66
2019-03-26T01:14:23.302Z,1028.7
2019-03-26T01:15:23.302Z,1028.73
2019-03-26T01:16:24.155Z,1028.79
2019-03-26T01:17:24.160Z,1028.84
2019-03-26T01:18:23.361Z,1028.82
2019-03-26T01:19:23.265Z,1028.87
2019-03-26T01:20:23.274Z,1028.9
2019-03-26T01:21:23.281Z,1028.86
2019-03-26T01:22:23.338Z,1028.88
2019-03-26T01:23:23.292Z,1028.89
2019-03-26T01:24:23.297Z,1028.92
2019-03-26T01:25:23.297Z,1028.93
2019-03-26T01:26:23.255Z,1028.98
2019-03-26T01:27:23.301Z,1028.93
2019-03-26T01:28:23.262Z,1028.96
2019-03-26T01:29:23.248Z,1028.98
2019-03-26T01:30:23.813Z,1028.91
2019-03-26T01:31:23.341Z,1028.94
2019-03-26T01:32:23.279Z,1028.96
2019-03-26T01:33:23.320Z,1028.98
2019-03-26T01:34:23.327Z,1028.99
2019-03-26T01:35:23.248Z,1028.96
2019-03-26T01:36:23.264Z,1028.99
2019-03-26T01:37:23.274Z,1029.02
2019-03-26T01:38:23.232Z,1029.02
2019-03-26T01:39:23.257Z,1029.04
2019-03-26T01:40:23.296Z,1029.05
2019-03-26T01:41:23.230Z,1029.08
2019-03-26T01:42:23.265Z,1029.11
2019-03-26T01:43:23.254Z,1029.06
2019-03-26T01:44:23.257Z,1029.08
2019-03-26T01:45:23.316Z,1029.07
2019-03-26T01:46:23.288Z,1029.05
2019-03-26T01:47:23.304Z,1029.07
2019-03-26T01:48:23.258Z,1029.04
2019-03-26T01:49:23.241Z,1029.05
2019-03-26T01:50:23.214Z,1029.05
2019-03-26T01:51:23.217Z,1029.04
2019-03-26T01:52:24.400Z,1029.07
2019-03-26T01:53:23.296Z,1029.07
2019-03-26T01:54:23.272Z,1029.1
2019-03-26T01:55:23.221Z,1029.14
2019-03-26T01:56:23.229Z,1029.13
2019-03-26T01:57:23.207Z,1029.15
2019-03-26T01:58:23.206Z,1029.19
2019-03-26T01:59:23.272Z,1029.15
2019-03-26T02:00:24.102Z,1029.15
2019-03-26T02:01:23.218Z,1029.13
2019-03-26T02:02:23.220Z,1029.14
2019-03-26T02:03:23.201Z,1029.11
2019-03-26T02:04:23.213Z,1029.07
2019-03-26T02:05:23.225Z,1029.07
2019-03-26T02:06:23.217Z,1029.07
2019-03-26T02:07:23.198Z,1029.1
2019-03-26T02:08:23.206Z,1029.14
2019-03-26T02:09:23.254Z,1029.13
2019-03-26T02:10:23.189Z,1029.11
2019-03-26T02:11:23.210Z,1029.13
2019-03-26T02:12:23.193Z,1029.12
2019-03-26T02:13:23.289Z,1029.13
2019-03-26T02:14:23.228Z,1029.16
2019-03-26T02:15:23.177Z,1029.18
2019-03-26T02:16:23.249Z,1029.21
2019-03-26T02:17:23.180Z,1029.2
2019-03-26T02:18:23.170Z,1029.18
2019-03-26T02:19:23.244Z,1029.18
2019-03-26T02:20:23.200Z,1029.16
2019-03-26T02:21:23.180Z,1029.16
2019-03-26T02:22:23.177Z,1029.1
2019-03-26T02:23:23.191Z,1029.14
2019-03-26T02:24:23.190Z,1029.16
2019-03-26T02:25:23.184Z,1029.21
2019-03-26T02:26:23.265Z,1029.17
2019-03-26T02:27:23.173Z,1029.21
2019-03-26T02:28:24.060Z,1029.23
2019-03-26T02:29:23.193Z,1029.2
2019-03-26T02:30:23.200Z,1029.23
2019-03-26T02:31:24.078Z,1029.23
2019-03-26T02:32:23.169Z,1029.3
2019-03-26T02:33:23.209Z,1029.29
2019-03-26T02:34:23.221Z,1029.29
2019-03-26T02:35:23.436Z,1029.3
2019-03-26T02:36:23.177Z,1029.32
2019-03-26T02:37:23.187Z,1029.32
2019-03-26T02:38:24.037Z,1029.33
2019-03-26T02:39:23.186Z,1029.31
2019-03-26T02:40:23.366Z,1029.33
2019-03-26T02:41:23.156Z,1029.34
2019-03-26T02:42:23.162Z,1029.31
2019-03-26T02:43:23.132Z,1029.35
2019-03-26T02:44:23.158Z,1029.3
2019-03-26T02:45:23.177Z,1029.31
2019-03-26T02:46:23.184Z,1029.31
2019-03-26T02:47:23.154Z,1029.26
2019-03-26T02:48:23.172Z,1029.27
2019-03-26T02:49:23.133Z,1029.28
2019-03-26T02:50:23.441Z,1029.27
2019-03-26T02:51:23.186Z,1029.25
2019-03-26T02:52:23.141Z,1029.26
2019-03-26T02:53:23.170Z,1029.28
2019-03-26T02:54:23.262Z,1029.29
2019-03-26T02:55:23.116Z,1029.28
2019-03-26T02:56:23.289Z,1029.29
2019-03-26T02:57:23.165Z,1029.3
2019-03-26T02:58:23.184Z,1029.31
2019-03-26T02:59:23.131Z,1029.29
2019-03-26T03:00:23.157Z,1029.34
2019-03-26T03:01:23.132Z,1029.31
2019-03-26T03:02:23.165Z,1029.33
2019-03-26T03:03:23.213Z,1029.34
2019-03-26T03:04:23.124Z,1029.34
2019-03-26T03:05:36.143Z,1029.35
2019-03-26T03:06:23.108Z,1029.38
2019-03-26T03:07:23.089Z,1029.39
2019-03-26T03:08:24.011Z,1029.41
2019-03-26T03:09:23.107Z,1029.43
2019-03-26T03:10:23.085Z,1029.43
2019-03-26T03:11:23.122Z,1029.47
2019-03-26T03:12:23.213Z,1029.5
2019-03-26T03:13:23.083Z,1029.48
2019-03-26T03:14:23.123Z,1029.48
2019-03-26T03:15:23.170Z,1029.49
2019-03-26T03:16:23.133Z,1029.46
2019-03-26T03:17:23.070Z,1029.44
2019-03-26T03:18:23.240Z,1029.44
2019-03-26T03:19:23.217Z,1029.4
2019-03-26T03:20:23.148Z,1029.39
2019-03-26T03:21:23.130Z,1029.43
2019-03-26T03:22:23.082Z,1029.4
2019-03-26T03:23:23.081Z,1029.43
2019-03-26T03:24:23.976Z,1029.42
2019-03-26T03:25:23.984Z,1029.41
2019-03-26T03:26:23.213Z,1029.43
2019-03-26T03:27:23.115Z,1029.44
2019-03-26T03:28:23.123Z,1029.47
2019-03-26T03:29:23.953Z,1029.48
2019-03-26T03:30:23.137Z,1029.5
2019-03-26T03:31:23.181Z,1029.53
2019-03-26T03:32:23.087Z,1029.52
2019-03-26T03:33:23.164Z,1029.56
2019-03-26T03:34:23.087Z,1029.53
2019-03-26T03:35:23.067Z,1029.55
2019-03-26T03:36:23.059Z,1029.54
2019-03-26T03:37:23.589Z,1029.56
2019-03-26T03:38:23.101Z,1029.55
2019-03-26T03:39:23.247Z,1029.58
2019-03-26T03:40:24.000Z,1029.62
2019-03-26T03:41:23.063Z,1029.6
2019-03-26T03:42:23.069Z,1029.6
2019-03-26T03:43:23.082Z,1029.59
2019-03-26T03:44:23.102Z,1029.58
2019-03-26T03:45:23.973Z,1029.56
2019-03-26T03:46:23.170Z,1029.56
2019-03-26T03:47:23.042Z,1029.58
2019-03-26T03:48:24.032Z,1029.6
2019-03-26T03:49:24.116Z,1029.6
2019-03-26T03:50:23.081Z,1029.61
2019-03-26T03:51:23.061Z,1029.61
2019-03-26T03:52:23.036Z,1029.6
2019-03-26T03:53:23.088Z,1029.58
2019-03-26T03:54:23.057Z,1029.56
2019-03-26T03:55:23.073Z,1029.59
2019-03-26T03:56:23.047Z,1029.56
2019-03-26T03:57:23.066Z,1029.6
2019-03-26T03:58:23.073Z,1029.61
2019-03-26T03:59:23.050Z,1029.62
2019-03-26T04:00:23.272Z,1029.64
2019-03-26T04:01:23.074Z,1029.62
2019-03-26T04:02:23.057Z,1029.63
2019-03-26T04:03:23.066Z,1029.67
2019-03-26T04:04:23.035Z,1029.65
2019-03-26T04:05:23.101Z,1029.65
2019-03-26T04:06:23.136Z,1029.72
2019-03-26T04:07:23.034Z,1029.71
2019-03-26T04:08:23.030Z,1029.73
2019-03-26T04:09:23.044Z,1029.73
2019-03-26T04:10:23.120Z,1029.68
2019-03-26T04:11:23.141Z,1029.69
2019-03-26T04:12:23.109Z,1029.68
2019-03-26T04:13:23.045Z,1029.67
2019-03-26T04:14:23.038Z,1029.67
2019-03-26T04:15:23.061Z,1029.68
2019-03-26T04:16:23.196Z,1029.67
2019-03-26T04:17:23.006Z,1029.65
2019-03-26T04:18:22.986Z,1029.65
2019-03-26T04:19:23.047Z,1029.68
2019-03-26T04:20:23.007Z,1029.68
2019-03-26T04:21:23.072Z,1029.68
2019-03-26T04:22:23.309Z,1029.67
2019-03-26T04:23:23.056Z,1029.69
2019-03-26T04:24:23.901Z,1029.71
2019-03-26T04:25:23.557Z,1029.69
2019-03-26T04:26:23.026Z,1029.69
2019-03-26T04:27:23.000Z,1029.74
2019-03-26T04:28:23.047Z,1029.75
2019-03-26T04:29:23.004Z,1029.75
2019-03-26T04:30:22.989Z,1029.73
2019-03-26T04:31:23.050Z,1029.72
2019-03-26T04:32:22.982Z,1029.74
2019-03-26T04:33:23.022Z,1029.78
2019-03-26T04:34:22.991Z,1029.79
2019-03-26T04:35:23.001Z,1029.85
2019-03-26T04:36:26.680Z,1029.82
2019-03-26T04:37:22.969Z,1029.86
2019-03-26T04:38:22.979Z,1029.84
2019-03-26T04:39:23.006Z,1029.92
2019-03-26T04:40:22.988Z,1029.91
2019-03-26T04:41:23.032Z,1029.92
2019-03-26T04:42:23.867Z,1029.93
2019-03-26T04:43:22.949Z,1029.95
2019-03-26T04:44:23.358Z,1029.95
2019-03-26T04:45:22.983Z,1029.95
2019-03-26T04:46:22.990Z,1029.94
2019-03-26T04:47:22.960Z,1030
2019-03-26T04:48:23.272Z,1029.98
2019-03-26T04:49:22.947Z,1029.99
2019-03-26T04:50:22.954Z,1029.98
2019-03-26T04:51:22.959Z,1029.99
2019-03-26T04:52:22.944Z,1029.98
2019-03-26T04:53:23.005Z,1029.97
2019-03-26T04:54:22.960Z,1030.03
2019-03-26T04:55:23.043Z,1030.01
2019-03-26T04:56:23.010Z,1030.07
2019-03-26T04:57:23.145Z,1030.06
2019-03-26T04:58:22.986Z,1030.07
2019-03-26T04:59:22.977Z,1030.09
2019-03-26T05:00:22.984Z,1030.08
2019-03-26T05:01:22.966Z,1030.13
2019-03-26T05:02:22.941Z,1030.13
2019-03-26T05:03:22.977Z,1030.14
2019-03-26T05:04:24.316Z,1030.13
2019-03-26T05:05:22.946Z,1030.17
2019-03-26T05:06:22.976Z,1030.12
2019-03-26T05:07:23.046Z,1030.17
2019-03-26T05:08:23.210Z,1030.2
2019-03-26T05:09:22.943Z,1030.19
2019-03-26T05:10:22.915Z,1030.16
2019-03-26T05:11:22.922Z,1030.15
2019-03-26T05:12:22.928Z,1030.17
2019-03-26T05:13:23.243Z,1030.18
2019-03-26T05:14:22.923Z,1030.22
2019-03-26T05:15:22.926Z,1030.22
2019-03-26T05:16:22.935Z,1030.2
2019-03-26T05:17:22.928Z,1030.21
2019-03-26T05:18:22.959Z,1030.21
2019-03-26T05:19:22.960Z,1030.22
2019-03-26T05:20:22.938Z,1030.2
2019-03-26T05:21:23.055Z,1030.18
2019-03-26T05:22:24.664Z,1030.23
2019-03-26T05:23:22.940Z,1030.23
2019-03-26T05:24:22.897Z,1030.23
2019-03-26T05:25:23.962Z,1030.21
2019-03-26T05:26:23.152Z,1030.2
2019-03-26T05:27:23.345Z,1030.29
2019-03-26T05:28:22.952Z,1030.27
2019-03-26T05:29:22.907Z,1030.28
2019-03-26T05:30:22.929Z,1030.31
2019-03-26T05:31:22.904Z,1030.29
2019-03-26T05:32:22.920Z,1030.34
2019-03-26T05:33:22.944Z,1030.36
2019-03-26T05:34:22.876Z,1030.39
2019-03-26T05:35:24.100Z,1030.36
2019-03-26T05:36:22.863Z,1030.36
2019-03-26T05:37:22.935Z,1030.37
2019-03-26T05:38:22.877Z,1030.43
2019-03-26T05:39:22.910Z,1030.43
2019-03-26T05:40:22.931Z,1030.48
2019-03-26T05:41:22.889Z,1030.45
2019-03-26T05:42:22.922Z,1030.5
2019-03-26T05:43:23.785Z,1030.53
2019-03-26T05:44:22.870Z,1030.55
2019-03-26T05:45:22.917Z,1030.56
2019-03-26T05:46:22.882Z,1030.61
2019-03-26T05:47:22.862Z,1030.57
2019-03-26T05:48:23.127Z,1030.62
2019-03-26T05:49:23.811Z,1030.62
2019-03-26T05:50:22.866Z,1030.63
2019-03-26T05:51:22.887Z,1030.68
2019-03-26T05:52:22.859Z,1030.64
2019-03-26T05:53:22.900Z,1030.7
2019-03-26T05:54:22.863Z,1030.67
2019-03-26T05:55:22.854Z,1030.72
2019-03-26T05:56:22.873Z,1030.7
2019-03-26T05:57:22.869Z,1030.66
2019-03-26T05:58:22.988Z,1030.69
2019-03-26T05:59:22.837Z,1030.72
2019-03-26T06:00:22.948Z,1030.68
2019-03-26T06:01:22.918Z,1030.69
2019-03-26T06:02:22.843Z,1030.75
2019-03-26T06:03:22.870Z,1030.71
2019-03-26T06:04:22.964Z,1030.71
2019-03-26T06:05:22.836Z,1030.73
2019-03-26T06:06:22.838Z,1030.81
2019-03-26T06:07:22.826Z,1030.8
2019-03-26T06:08:23.156Z,1030.79
2019-03-26T06:09:23.740Z,1030.78
2019-03-26T06:10:22.861Z,1030.79
2019-03-26T06:11:22.912Z,1030.8
2019-03-26T06:12:22.836Z,1030.78
2019-03-26T06:13:22.875Z,1030.79
2019-03-26T06:14:22.898Z,1030.79
2019-03-26T06:15:22.836Z,1030.79
2019-03-26T06:16:22.888Z,1030.84
2019-03-26T06:17:22.888Z,1030.83
2019-03-26T06:18:22.816Z,1030.86
2019-03-26T06:19:22.837Z,1030.87
2019-03-26T06:20:22.833Z,1030.82
2019-03-26T06:21:22.856Z,1030.82
2019-03-26T06:22:22.950Z,1030.86
2019-03-26T06:23:22.895Z,1030.85
2019-03-26T06:24:22.844Z,1030.86
2019-03-26T06:25:22.829Z,1030.87
2019-03-26T06:26:22.853Z,1030.87
2019-03-26T06:27:22.822Z,1030.84
2019-03-26T06:28:22.810Z,1030.84
2019-03-26T06:29:22.921Z,1030.84
2019-03-26T06:30:22.830Z,1030.82
2019-03-26T06:31:22.822Z,1030.86
2019-03-26T06:32:22.877Z,1030.82
2019-03-26T06:33:22.812Z,1030.83
2019-03-26T06:34:22.863Z,1030.88
2019-03-26T06:35:22.828Z,1030.87
2019-03-26T06:36:23.952Z,1030.87
2019-03-26T06:37:22.826Z,1030.88
2019-03-26T06:38:23.769Z,1030.87
2019-03-26T06:39:22.856Z,1030.91
2019-03-26T06:40:22.830Z,1030.89
2019-03-26T06:41:22.784Z,1030.89
2019-03-26T06:42:22.856Z,1030.86
2019-03-26T06:43:23.020Z,1030.89
2019-03-26T06:44:22.791Z,1030.91
2019-03-26T06:45:22.795Z,1030.95
2019-03-26T06:46:22.784Z,1030.94
2019-03-26T06:47:22.768Z,1030.9
2019-03-26T06:48:22.764Z,1030.96
2019-03-26T06:49:22.778Z,1030.93
2019-03-26T06:50:22.823Z,1030.86
2019-03-26T06:51:22.788Z,1030.81
2019-03-26T06:52:22.771Z,1030.82
2019-03-26T06:53:22.786Z,1030.82
2019-03-26T06:54:22.919Z,1030.83
2019-03-26T06:55:22.806Z,1030.82
2019-03-26T06:56:22.793Z,1030.84
2019-03-26T06:57:36.048Z,1030.85
2019-03-26T06:58:22.865Z,1030.88
2019-03-26T06:59:22.807Z,1030.93
2019-03-26T07:00:22.781Z,1030.94
2019-03-26T07:01:22.773Z,1030.99
2019-03-26T07:02:22.772Z,1031.04
2019-03-26T07:03:22.776Z,1031.08
2019-03-26T07:04:22.760Z,1031.07
2019-03-26T07:05:22.816Z,1031.11
2019-03-26T07:06:22.789Z,1031.09
2019-03-26T07:07:32.094Z,1031.07
2019-03-26T07:08:22.788Z,1031.05
2019-03-26T07:09:22.785Z,1031.06
2019-03-26T07:10:22.758Z,1031.05
2019-03-26T07:11:22.722Z,1031.11
2019-03-26T07:12:22.854Z,1031.13
2019-03-26T07:13:23.055Z,1031.12
2019-03-26T07:14:22.754Z,1031.12
2019-03-26T07:15:22.908Z,1031.12
2019-03-26T07:16:22.806Z,1031.15
2019-03-26T07:17:22.747Z,1031.14
2019-03-26T07:18:22.751Z,1031.09
2019-03-26T07:19:22.751Z,1031.08
2019-03-26T07:20:22.737Z,1031.1
2019-03-26T07:21:23.313Z,1031.09
2019-03-26T07:22:22.771Z,1031.09
2019-03-26T07:23:22.730Z,1031.14
2019-03-26T07:24:22.715Z,1031.15
2019-03-26T07:25:22.693Z,1031.14
2019-03-26T07:26:22.703Z,1031.14
2019-03-26T07:27:22.695Z,1031.17
2019-03-26T07:28:22.717Z,1031.2
2019-03-26T07:29:22.723Z,1031.19
2019-03-26T07:30:22.749Z,1031.22
2019-03-26T07:31:22.756Z,1031.17
2019-03-26T07:32:22.697Z,1031.19
2019-03-26T07:33:22.715Z,1031.17
2019-03-26T07:34:22.704Z,1031.18
2019-03-26T07:35:22.831Z,1031.16
2019-03-26T07:36:25.005Z,1031.2
2019-03-26T07:37:22.748Z,1031.2
2019-03-26T07:38:22.690Z,1031.21
2019-03-26T07:39:22.682Z,1031.23
2019-03-26T07:40:22.693Z,1031.18
2019-03-26T07:41:22.716Z,1031.14
2019-03-26T07:42:22.697Z,1031.13
2019-03-26T07:43:22.696Z,1031.13
2019-03-26T07:44:22.721Z,1031.12
2019-03-26T07:45:22.675Z,1031.08
2019-03-26T07:46:22.751Z,1031.12
2019-03-26T07:47:22.723Z,1031.11
2019-03-26T07:48:22.690Z,1031.15
2019-03-26T07:49:22.705Z,1031.16
2019-03-26T07:50:22.682Z,1031.19
2019-03-26T07:51:22.712Z,1031.25
2019-03-26T07:52:22.705Z,1031.27
2019-03-26T07:53:22.723Z,1031.28
2019-03-26T07:54:22.780Z,1031.24
2019-03-26T07:55:22.741Z,1031.24
2019-03-26T07:56:22.697Z,1031.24
2019-03-26T07:57:22.721Z,1031.25
2019-03-26T07:58:22.862Z,1031.26
2019-03-26T07:59:22.706Z,1031.31
2019-03-26T08:00:22.748Z,1031.27
2019-03-26T08:01:22.659Z,1031.29
2019-03-26T08:02:22.657Z,1031.31
2019-03-26T08:03:22.731Z,1031.3
2019-03-26T08:04:22.998Z,1031.37
2019-03-26T08:05:30.182Z,1031.34
2019-03-26T08:06:22.643Z,1031.39
2019-03-26T08:07:22.643Z,1031.37
2019-03-26T08:08:22.644Z,1031.38
2019-03-26T08:09:22.991Z,1031.41
2019-03-26T08:10:22.662Z,1031.43
2019-03-26T08:11:22.874Z,1031.48
2019-03-26T08:12:22.653Z,1031.46
2019-03-26T08:13:22.706Z,1031.49
2019-03-26T08:14:22.659Z,1031.46
2019-03-26T08:15:22.711Z,1031.48
2019-03-26T08:16:22.899Z,1031.49
2019-03-26T08:17:22.708Z,1031.44
2019-03-26T08:18:22.654Z,1031.46
2019-03-26T08:19:22.636Z,1031.47
2019-03-26T08:20:22.958Z,1031.46
2019-03-26T08:21:24.986Z,1031.45
2019-03-26T08:22:22.686Z,1031.45
2019-03-26T08:23:22.773Z,1031.49
2019-03-26T08:24:22.648Z,1031.49
2019-03-26T08:25:22.729Z,1031.48
2019-03-26T08:26:22.622Z,1031.51
2019-03-26T08:27:22.618Z,1031.53
2019-03-26T08:28:22.610Z,1031.51
2019-03-26T08:29:22.630Z,1031.55
2019-03-26T08:30:22.853Z,1031.51
2019-03-26T08:31:22.641Z,1031.54
2019-03-26T08:32:22.634Z,1031.48
2019-03-26T08:33:23.606Z,1031.5
2019-03-26T08:34:22.669Z,1031.5
2019-03-26T08:35:22.663Z,1031.46
2019-03-26T08:36:22.626Z,1031.45
2019-03-26T08:37:22.656Z,1031.43
2019-03-26T08:38:22.620Z,1031.45
2019-03-26T08:39:22.620Z,1031.41
2019-03-26T08:40:23.662Z,1031.44
2019-03-26T08:41:22.684Z,1031.46
2019-03-26T08:42:22.907Z,1031.51
2019-03-26T08:43:22.610Z,1031.52
2019-03-26T08:44:22.626Z,1031.54
2019-03-26T08:45:22.692Z,1031.56
2019-03-26T08:46:22.594Z,1031.6
2019-03-26T08:47:22.607Z,1031.61
2019-03-26T08:48:22.847Z,1031.61
2019-03-26T08:49:22.616Z,1031.58
2019-03-26T08:50:22.581Z,1031.59
2019-03-26T08:51:22.645Z,1031.56
2019-03-26T08:52:22.633Z,1031.53
2019-03-26T08:53:22.647Z,1031.53
2019-03-26T08:54:22.637Z,1031.48
2019-03-26T08:55:22.593Z,1031.51
2019-03-26T08:56:22.602Z,1031.49
2019-03-26T08:57:22.588Z,1031.49
2019-03-26T08:58:22.627Z,1031.47
2019-03-26T08:59:22.625Z,1031.48
2019-03-26T09:00:22.573Z,1031.5
2019-03-26T09:01:22.567Z,1031.5
2019-03-26T09:02:22.573Z,1031.5
2019-03-26T09:03:22.660Z,1031.5
2019-03-26T09:04:22.927Z,1031.55
2019-03-26T09:05:22.650Z,1031.54
2019-03-26T09:06:22.603Z,1031.55
2019-03-26T09:07:22.643Z,1031.57
2019-03-26T09:08:25.976Z,1031.58
2019-03-26T09:09:22.658Z,1031.57
2019-03-26T09:10:22.583Z,1031.62
2019-03-26T09:11:22.568Z,1031.66
2019-03-26T09:12:22.545Z,1031.63
2019-03-26T09:13:22.579Z,1031.68
2019-03-26T09:14:22.649Z,1031.69
2019-03-26T09:15:22.574Z,1031.67
2019-03-26T09:16:22.552Z,1031.65
2019-03-26T09:17:22.605Z,1031.64
2019-03-26T09:18:22.570Z,1031.63
2019-03-26T09:19:22.585Z,1031.56
2019-03-26T09:20:22.722Z,1031.53
2019-03-26T09:21:22.558Z,1031.54
2019-03-26T09:22:22.558Z,1031.51
2019-03-26T09:23:22.564Z,1031.49
2019-03-26T09:24:22.553Z,1031.52
2019-03-26T09:25:22.653Z,1031.54
2019-03-26T09:26:22.947Z,1031.55
2019-03-26T09:27:22.528Z,1031.51
2019-03-26T09:28:22.542Z,1031.58
2019-03-26T09:29:22.545Z,1031.61
2019-03-26T09:30:22.634Z,1031.65
2019-03-26T09:31:22.550Z,1031.69
2019-03-26T09:32:22.806Z,1031.71
2019-03-26T09:33:22.562Z,1031.63
2019-03-26T09:34:22.540Z,1031.62
2019-03-26T09:35:22.532Z,1031.58
2019-03-26T09:36:22.576Z,1031.59
2019-03-26T09:37:22.578Z,1031.63
2019-03-26T09:38:22.531Z,1031.69
2019-03-26T09:39:22.530Z,1031.71
2019-03-26T09:40:22.542Z,1031.68
2019-03-26T09:41:22.518Z,1031.69
2019-03-26T09:42:22.522Z,1031.69
2019-03-26T09:43:22.590Z,1031.68
2019-03-26T09:44:22.549Z,1031.71
2019-03-26T09:45:22.520Z,1031.7
2019-03-26T09:46:22.573Z,1031.69
2019-03-26T09:47:22.710Z,1031.72
2019-03-26T09:48:22.510Z,1031.72
2019-03-26T09:49:22.530Z,1031.71
2019-03-26T09:50:22.508Z,1031.73
2019-03-26T09:51:22.570Z,1031.76
2019-03-26T09:52:22.615Z,1031.77
2019-03-26T09:53:22.578Z,1031.75
2019-03-26T09:54:22.510Z,1031.77
2019-03-26T09:55:22.560Z,1031.79
2019-03-26T09:56:32.013Z,1031.81
2019-03-26T09:57:22.524Z,1031.83
2019-03-26T09:58:22.491Z,1031.81
2019-03-26T09:59:22.528Z,1031.8
2019-03-26T10:00:22.542Z,1031.83
2019-03-26T10:01:22.524Z,1031.78
2019-03-26T10:02:22.503Z,1031.76
2019-03-26T10:03:22.532Z,1031.78
2019-03-26T10:04:22.535Z,1031.76
2019-03-26T10:05:22.601Z,1031.78
2019-03-26T10:06:24.239Z,1031.83
2019-03-26T10:07:22.499Z,1031.79
2019-03-26T10:08:22.712Z,1031.79
2019-03-26T10:09:22.649Z,1031.79
2019-03-26T10:10:22.509Z,1031.78
2019-03-26T10:11:22.521Z,1031.77
2019-03-26T10:12:22.493Z,1031.78
2019-03-26T10:13:22.499Z,1031.82
2019-03-26T10:14:22.476Z,1031.83
2019-03-26T10:15:22.476Z,1031.86
2019-03-26T10:16:22.472Z,1031.86
2019-03-26T10:17:22.487Z,1031.88
2019-03-26T10:18:22.492Z,1031.89
2019-03-26T10:19:22.472Z,1031.93
2019-03-26T10:20:22.523Z,1031.88
2019-03-26T10:21:22.554Z,1031.91
2019-03-26T10:22:23.376Z,1031.9
2019-03-26T10:23:22.615Z,1031.9
2019-03-26T10:24:22.448Z,1031.91
2019-03-26T10:25:22.545Z,1031.89
2019-03-26T10:27:22.467Z,1031.88
2019-03-26T10:28:22.454Z,1031.89
2019-03-26T10:29:31.264Z,1031.9
2019-03-26T10:30:24.999Z,1031.87
2019-03-26T10:31:22.467Z,1031.88
2019-03-26T10:32:22.515Z,1031.89
2019-03-26T10:33:22.475Z,1031.88
2019-03-26T10:34:22.471Z,1031.86
2019-03-26T10:35:22.441Z,1031.84
2019-03-26T10:36:22.468Z,1031.87
2019-03-26T10:37:22.262Z,1031.86
2019-03-26T10:38:22.444Z,1031.86
2019-03-26T10:39:22.450Z,1031.87
2019-03-26T10:40:22.685Z,1031.9
2019-03-26T10:41:23.047Z,1031.88
2019-03-26T10:42:22.535Z,1031.92
2019-03-26T10:43:22.424Z,1031.9
2019-03-26T10:45:22.457Z,1031.9
2019-03-26T10:46:22.441Z,1031.9
2019-03-26T10:47:22.558Z,1031.96
2019-03-26T10:48:22.477Z,1031.93
2019-03-26T10:49:22.469Z,1031.91
2019-03-26T10:50:22.428Z,1031.89
2019-03-26T10:51:22.459Z,1031.91
2019-03-26T10:52:22.441Z,1031.87
2019-03-26T10:53:22.461Z,1031.88
2019-03-26T10:54:22.432Z,1031.88
2019-03-26T10:55:22.444Z,1031.85
2019-03-26T10:56:22.488Z,1031.84
2019-03-26T10:57:22.426Z,1031.77
2019-03-26T10:58:22.405Z,1031.77
2019-03-26T10:59:22.420Z,1031.73
2019-03-26T11:00:22.431Z,1031.72
2019-03-26T11:01:22.473Z,1031.71
2019-03-26T11:02:22.567Z,1031.69
2019-03-26T11:03:22.480Z,1031.66
2019-03-26T11:04:22.587Z,1031.68
2019-03-26T11:05:22.611Z,1031.62
2019-03-26T11:06:22.703Z,1031.61
2019-03-26T11:07:22.429Z,1031.57
2019-03-26T11:08:22.399Z,1031.6
2019-03-26T11:09:27.487Z,1031.56
2019-03-26T11:10:22.392Z,1031.56
2019-03-26T11:11:22.415Z,1031.53
2019-03-26T11:12:22.417Z,1031.53
2019-03-26T11:13:22.388Z,1031.52
2019-03-26T11:14:22.417Z,1031.52
2019-03-26T11:15:22.398Z,1031.51
2019-03-26T11:16:22.402Z,1031.49
2019-03-26T11:17:22.390Z,1031.5
2019-03-26T11:18:22.512Z,1031.47
2019-03-26T11:19:22.439Z,1031.41
2019-03-26T11:20:22.440Z,1031.41
2019-03-26T11:21:22.463Z,1031.37
2019-03-26T11:22:22.388Z,1031.36
2019-03-26T11:23:22.385Z,1031.35
2019-03-26T11:24:22.430Z,1031.38
2019-03-26T11:25:22.395Z,1031.36
2019-03-26T11:26:22.452Z,1031.35
2019-03-26T11:27:22.499Z,1031.39
2019-03-26T11:28:22.453Z,1031.36
2019-03-26T11:29:22.377Z,1031.36
2019-03-26T11:30:22.377Z,1031.37
2019-03-26T11:31:22.440Z,1031.35
2019-03-26T11:32:22.390Z,1031.37
2019-03-26T11:33:22.396Z,1031.38
2019-03-26T11:34:22.410Z,1031.37
2019-03-26T11:35:22.431Z,1031.39
2019-03-26T11:36:22.400Z,1031.38
2019-03-26T11:37:22.386Z,1031.38
2019-03-26T11:38:22.417Z,1031.34
2019-03-26T11:39:33.176Z,1031.4
2019-03-26T11:40:22.433Z,1031.37
2019-03-26T11:41:22.441Z,1031.33
2019-03-26T11:42:22.363Z,1031.39
2019-03-26T11:43:22.386Z,1031.37
2019-03-26T11:44:22.377Z,1031.37
2019-03-26T11:45:22.377Z,1031.37
2019-03-26T11:46:22.617Z,1031.38
2019-03-26T11:47:22.357Z,1031.37
2019-03-26T11:48:22.356Z,1031.41
2019-03-26T11:49:22.580Z,1031.4
2019-03-26T11:50:22.338Z,1031.42
2019-03-26T11:51:22.387Z,1031.44
2019-03-26T11:52:22.369Z,1031.44
2019-03-26T11:53:22.390Z,1031.43
2019-03-26T11:54:22.401Z,1031.36
2019-03-26T11:55:22.391Z,1031.34
2019-03-26T11:56:22.386Z,1031.33
2019-03-26T11:57:22.331Z,1031.26
2019-03-26T11:58:31.113Z,1031.3
2019-03-26T11:59:22.367Z,1031.27
2019-03-26T12:00:22.384Z,1031.21
2019-03-26T12:01:22.398Z,1031.2
2019-03-26T12:02:22.492Z,1031.2
2019-03-26T12:03:22.406Z,1031.17
2019-03-26T12:04:22.327Z,1031.17
2019-03-26T12:05:22.391Z,1031.15
2019-03-26T12:06:22.362Z,1031.18
2019-03-26T12:07:22.459Z,1031.15
2019-03-26T12:08:22.289Z,1031.13
2019-03-26T12:09:22.364Z,1031.06